createdAt,value
2019-05-03T00:00:08.483Z,67.85
2019-05-03T00:03:01.600Z,58.02
2019-05-03T00:05:55.435Z,67.65
2019-05-03T00:08:23.431Z,59.00
2019-05-03T00:10:51.841Z,61.88
2019-05-03T00:13:21.757Z,60.60
2019-05-03T00:16:02.719Z,51.70
2019-05-03T00:18:32.613Z,53.83
2019-05-03T00:21:02.148Z,53.20
2019-05-03T00:23:32.237Z,52.73
2019-05-03T00:26:02.487Z,51.20
2019-05-03T00:28:32.063Z,55.10
2019-05-03T00:31:01.852Z,66.28
2019-05-03T00:33:31.799Z,54.30
2019-05-03T00:36:19.433Z,51.28
2019-05-03T00:38:48.307Z,60.73
2019-05-03T00:41:16.842Z,56.73
2019-05-03T00:43:44.778Z,52.80
2019-05-03T00:46:13.018Z,43.52
2019-05-03T00:48:42.884Z,43.28
2019-05-03T00:51:11.750Z,40.63
2019-05-03T00:53:39.701Z,43.05
2019-05-03T00:56:07.760Z,37.80
2019-05-03T00:58:49.601Z,28.10
2019-05-03T01:01:17.568Z,31.40
2019-05-03T01:03:45.573Z,28.52
2019-05-03T01:06:13.818Z,25.45
2019-05-03T01:08:41.963Z,23.50
2019-05-03T01:11:10.313Z,26.50
2019-05-03T01:13:38.539Z,23.85
2019-05-03T01:16:11.830Z,23.30
2019-05-03T01:18:41.755Z,29.35
2019-05-03T01:21:11.645Z,24.82
2019-05-03T01:23:41.843Z,23.10
2019-05-03T01:26:11.749Z,25.45
2019-05-03T01:28:39.765Z,23.47
2019-05-03T01:31:07.605Z,28.50
2019-05-03T01:33:35.496Z,20.08
2019-05-03T01:36:03.743Z,23.18
2019-05-03T01:38:32.118Z,22.98
2019-05-03T01:41:01.715Z,22.65
2019-05-03T01:43:31.728Z,24.10
2019-05-03T01:46:02.536Z,17.92
2019-05-03T01:48:48.379Z,18.50
2019-05-03T01:51:42.100Z,19.17
2019-05-03T01:54:12.190Z,21.23
2019-05-03T01:56:42.233Z,22.35
2019-05-03T01:59:10.014Z,19.82
2019-05-03T02:02:07.459Z,20.27
2019-05-03T02:04:42.418Z,19.80
2019-05-03T02:07:11.735Z,19.60
2019-05-03T02:09:41.580Z,18.77
2019-05-03T02:12:09.565Z,16.50
2019-05-03T02:14:37.487Z,19.92
2019-05-03T02:17:05.469Z,18.60
2019-05-03T02:19:33.316Z,17.65
2019-05-03T02:22:02.911Z,18.25
2019-05-03T02:24:32.732Z,17.48
2019-05-03T02:27:02.148Z,21.07
2019-05-03T02:29:32.626Z,18.82
2019-05-03T02:32:03.283Z,17.05
2019-05-03T02:34:32.754Z,17.90
2019-05-03T02:37:03.003Z,19.35
2019-05-03T02:39:33.202Z,17.73
2019-05-03T02:42:10.112Z,18.75
2019-05-03T02:44:30.310Z,19.00
2019-05-03T02:47:15.946Z,18.70
2019-05-03T02:49:57.521Z,19.42
2019-05-03T02:52:36.736Z,18.48
2019-05-03T02:55:07.785Z,20.92
2019-05-03T02:57:35.819Z,23.55
2019-05-03T03:00:08.933Z,22.67
2019-05-03T03:02:39.042Z,20.48
2019-05-03T03:05:09.535Z,20.62
2019-05-03T03:07:38.951Z,19.05
2019-05-03T03:10:07.183Z,20.55
2019-05-03T03:12:37.172Z,17.12
2019-05-03T03:15:07.088Z,16.10
2019-05-03T03:17:36.427Z,19.98
2019-05-03T03:20:07.538Z,16.27
2019-05-03T03:22:41.906Z,18.23
2019-05-03T03:25:17.211Z,18.12
2019-05-03T03:27:47.761Z,18.20
2019-05-03T03:30:38.549Z,16.90
2019-05-03T03:33:11.946Z,16.00
2019-05-03T03:35:41.995Z,20.30
2019-05-03T03:38:10.141Z,17.50
2019-05-03T03:40:39.796Z,16.95
2019-05-03T03:43:10.139Z,18.65
2019-05-03T03:45:38.792Z,17.57
2019-05-03T03:48:09.658Z,18.12
2019-05-03T03:50:39.944Z,18.98
2019-05-03T03:53:10.781Z,19.60
2019-05-03T03:55:39.522Z,17.48
2019-05-03T03:58:08.397Z,17.87
2019-05-03T04:00:36.565Z,18.45
2019-05-03T04:03:05.879Z,16.90
2019-05-03T04:05:35.828Z,17.52
2019-05-03T04:08:05.672Z,16.67
2019-05-03T04:10:35.233Z,18.77
2019-05-03T04:13:05.697Z,18.50
2019-05-03T04:15:52.095Z,17.00
2019-05-03T04:18:38.239Z,21.75
2019-05-03T04:21:06.727Z,15.85
2019-05-03T04:23:35.883Z,18.75
2019-05-03T04:26:07.055Z,16.82
2019-05-03T04:28:36.174Z,18.27
2019-05-03T04:31:06.290Z,17.45
2019-05-03T04:33:35.875Z,16.75
2019-05-03T04:36:05.378Z,18.42
2019-05-03T04:38:35.411Z,20.37
2019-05-03T04:41:05.923Z,18.98
2019-05-03T04:43:35.643Z,19.12
2019-05-03T04:46:11.800Z,21.30
2019-05-03T04:48:40.194Z,17.90
2019-05-03T04:51:08.691Z,19.77
2019-05-03T04:53:38.919Z,19.98
2019-05-03T04:56:06.959Z,20.32
2019-05-03T04:58:36.377Z,19.27
2019-05-03T05:01:06.277Z,22.87
2019-05-03T05:03:36.219Z,18.40
2019-05-03T05:06:06.342Z,23.07
2019-05-03T05:08:35.864Z,19.10
2019-05-03T05:11:05.823Z,17.67
2019-05-03T05:13:35.584Z,19.30
2019-05-03T05:16:05.887Z,19.45
2019-05-03T05:18:39.183Z,17.25
2019-05-03T05:21:25.120Z,16.17
2019-05-03T05:23:58.830Z,17.17
2019-05-03T05:26:32.275Z,17.40
2019-05-03T05:29:05.333Z,16.70
2019-05-03T05:31:33.469Z,22.67
2019-05-03T05:34:01.554Z,18.00
2019-05-03T05:36:29.707Z,17.48
2019-05-03T05:38:57.746Z,16.77
2019-05-03T05:41:25.885Z,18.50
2019-05-03T05:43:54.999Z,19.70
2019-05-03T05:46:25.308Z,19.27
2019-05-03T05:48:55.463Z,19.15
2019-05-03T05:51:24.840Z,17.95
2019-05-03T05:53:54.794Z,19.17
2019-05-03T05:56:38.606Z,17.55
2019-05-03T05:59:38.526Z,20.95
2019-05-03T06:02:08.813Z,16.00
2019-05-03T06:04:36.960Z,19.70
2019-05-03T06:07:27.212Z,15.25
2019-05-03T06:10:20.494Z,18.15
2019-05-03T06:12:54.555Z,14.80
2019-05-03T06:15:44.666Z,17.12
2019-05-03T06:18:25.042Z,14.63
2019-05-03T06:21:00.942Z,15.72
2019-05-03T06:23:47.474Z,19.35
2019-05-03T06:26:34.641Z,14.43
2019-05-03T06:29:04.598Z,15.50
2019-05-03T06:31:39.312Z,15.28
2019-05-03T06:34:07.726Z,16.02
2019-05-03T06:36:36.691Z,14.73
2019-05-03T06:39:08.375Z,13.80
2019-05-03T06:41:36.370Z,15.38
2019-05-03T06:44:04.518Z,14.20
2019-05-03T06:46:48.227Z,14.65
2019-05-03T06:49:16.188Z,13.98
2019-05-03T06:51:49.109Z,17.48
2019-05-03T06:54:15.799Z,13.95
2019-05-03T06:56:50.995Z,14.68
2019-05-03T06:59:35.744Z,13.90
2019-05-03T07:02:25.144Z,12.80
2019-05-03T07:04:53.866Z,14.30
2019-05-03T07:07:38.846Z,14.78
2019-05-03T07:10:11.456Z,14.20
2019-05-03T07:12:57.483Z,14.85
2019-05-03T07:15:25.533Z,15.45
2019-05-03T07:17:55.631Z,14.58
2019-05-03T07:20:25.566Z,16.05
2019-05-03T07:22:55.705Z,13.55
2019-05-03T07:25:25.611Z,12.93
2019-05-03T07:27:55.602Z,14.07
2019-05-03T07:30:24.796Z,13.75
2019-05-03T07:33:00.922Z,20.62
2019-05-03T07:35:28.750Z,13.58
2019-05-03T07:37:56.814Z,12.95
2019-05-03T07:40:25.415Z,9.65
2019-05-03T07:42:55.443Z,12.05
2019-05-03T07:45:25.458Z,13.08
2019-05-03T07:47:55.630Z,18.10
2019-05-03T07:50:25.574Z,12.45
2019-05-03T07:52:55.418Z,12.25
2019-05-03T07:55:42.683Z,12.00
2019-05-03T07:58:15.031Z,10.40
2019-05-03T08:00:44.537Z,11.15
2019-05-03T08:03:15.303Z,15.85
2019-05-03T08:05:45.248Z,15.48
2019-05-03T08:08:14.773Z,12.43
2019-05-03T08:10:44.951Z,12.30
2019-05-03T08:13:14.852Z,10.53
2019-05-03T08:15:42.631Z,10.10
2019-05-03T08:18:10.519Z,11.43
2019-05-03T08:20:38.473Z,12.30
2019-05-03T08:23:06.551Z,15.15
2019-05-03T08:25:35.427Z,16.10
2019-05-03T08:28:05.287Z,11.00
2019-05-03T08:31:04.623Z,11.57
2019-05-03T08:33:44.838Z,11.60
2019-05-03T08:36:12.983Z,11.20
2019-05-03T08:38:41.030Z,9.88
2019-05-03T08:41:11.060Z,11.93
2019-05-03T08:43:39.062Z,19.75
2019-05-03T08:46:07.224Z,11.33
2019-05-03T08:48:35.614Z,12.23
2019-05-03T08:51:04.600Z,13.08
2019-05-03T08:53:35.624Z,13.70
2019-05-03T08:56:05.117Z,11.38
2019-05-03T08:58:34.805Z,15.50
2019-05-03T09:01:05.499Z,12.25
2019-05-03T09:03:36.341Z,12.88
2019-05-03T09:06:04.628Z,12.93
2019-05-03T09:08:35.246Z,14.10
2019-05-03T09:11:11.650Z,12.05
2019-05-03T09:14:00.534Z,12.25
2019-05-03T09:16:28.583Z,12.90
2019-05-03T09:18:56.438Z,13.03
2019-05-03T09:21:25.521Z,12.75
2019-05-03T09:23:55.403Z,14.58
2019-05-03T09:26:28.352Z,14.47
2019-05-03T09:28:55.644Z,14.40
2019-05-03T09:31:24.659Z,11.73
2019-05-03T09:33:55.135Z,15.30
2019-05-03T09:36:25.102Z,12.75
2019-05-03T09:38:54.871Z,13.50
2019-05-03T09:41:25.649Z,14.68
2019-05-03T09:43:55.472Z,12.07
2019-05-03T09:46:26.342Z,13.98
2019-05-03T09:49:03.581Z,15.68
2019-05-03T09:51:25.548Z,13.10
2019-05-03T09:53:59.388Z,12.10
2019-05-03T09:56:54.975Z,12.37
2019-05-03T09:59:15.757Z,12.60
2019-05-03T10:01:45.678Z,10.23
2019-05-03T10:04:13.963Z,10.90
2019-05-03T10:06:41.992Z,9.38
2019-05-03T10:09:09.994Z,9.83
2019-05-03T10:11:37.899Z,11.73
2019-05-03T10:14:06.280Z,10.40
2019-05-03T10:16:38.632Z,11.08
2019-05-03T10:19:07.036Z,9.38
2019-05-03T10:21:37.226Z,11.08
2019-05-03T10:24:06.629Z,12.50
2019-05-03T10:26:35.627Z,10.38
2019-05-03T10:29:05.408Z,12.00
2019-05-03T10:31:41.474Z,12.58
2019-05-03T10:34:09.547Z,11.60
2019-05-03T10:36:37.367Z,10.10
2019-05-03T10:39:06.065Z,11.08
2019-05-03T10:41:34.759Z,10.53
2019-05-03T10:44:03.068Z,15.23
2019-05-03T10:46:31.010Z,11.55
2019-05-03T10:48:59.501Z,9.48
2019-05-03T10:51:30.389Z,10.80
2019-05-03T10:53:59.553Z,10.20
2019-05-03T10:56:37.863Z,8.73
2019-05-03T10:59:07.301Z,10.85
2019-05-03T11:01:54.531Z,10.65
2019-05-03T11:04:23.310Z,9.33
2019-05-03T11:06:51.551Z,11.33
2019-05-03T11:09:19.977Z,8.58
2019-05-03T11:11:48.169Z,9.73
2019-05-03T11:14:16.326Z,9.25
2019-05-03T11:16:46.048Z,8.17
2019-05-03T11:19:14.822Z,6.37
2019-05-03T11:21:45.306Z,7.00
2019-05-03T11:24:14.717Z,10.60
2019-05-03T11:26:45.590Z,6.53
2019-05-03T11:29:15.374Z,6.10
2019-05-03T11:31:49.361Z,5.45
2019-05-03T11:34:22.242Z,6.12
2019-05-03T11:37:08.242Z,7.28
2019-05-03T11:39:36.355Z,7.72
2019-05-03T11:42:04.765Z,5.78
2019-05-03T11:44:38.512Z,5.47
2019-05-03T11:47:06.866Z,6.65
2019-05-03T11:49:35.189Z,6.65
2019-05-03T11:52:06.250Z,6.72
2019-05-03T11:54:35.720Z,6.50
2019-05-03T11:57:07.875Z,5.80
2019-05-03T11:59:35.916Z,5.70
2019-05-03T12:02:38.759Z,7.95
2019-05-03T12:05:12.808Z,4.37
2019-05-03T12:07:40.788Z,4.87
2019-05-03T12:10:30.060Z,3.55
2019-05-03T12:13:20.192Z,4.35
2019-05-03T12:15:48.217Z,4.70
2019-05-03T12:18:17.231Z,4.00
2019-05-03T12:20:47.521Z,2.50
2019-05-03T12:23:17.076Z,2.90
2019-05-03T12:25:46.624Z,3.75
2019-05-03T12:28:15.386Z,3.72
2019-05-03T12:30:44.917Z,2.80
2019-05-03T12:33:15.371Z,3.27
2019-05-03T12:35:43.489Z,3.00
2019-05-03T12:38:11.994Z,3.47
2019-05-03T12:40:40.005Z,2.35
2019-05-03T12:43:08.672Z,2.80
2019-05-03T12:45:36.565Z,2.92
2019-05-03T12:48:05.236Z,2.35
2019-05-03T12:50:34.657Z,2.80
2019-05-03T12:53:04.861Z,3.33
2019-05-03T12:55:35.342Z,3.47
2019-05-03T12:58:05.876Z,2.90
2019-05-03T13:00:52.669Z,2.75
2019-05-03T13:03:30.272Z,2.15
2019-05-03T13:05:58.539Z,3.10
2019-05-03T13:08:42.170Z,2.02
2019-05-03T13:11:10.474Z,2.20
2019-05-03T13:13:38.714Z,3.40
2019-05-03T13:16:06.885Z,2.85
2019-05-03T13:18:35.620Z,2.52
2019-05-03T13:21:05.846Z,3.30
2019-05-03T13:23:35.314Z,2.77
2019-05-03T13:26:05.625Z,2.77
2019-05-03T13:28:34.073Z,2.72
2019-05-03T13:31:02.426Z,2.37
2019-05-03T13:33:30.427Z,4.62
2019-05-03T13:35:58.879Z,2.45
2019-05-03T13:38:27.184Z,5.00
2019-05-03T13:40:55.092Z,2.90
2019-05-03T13:43:23.088Z,3.80
2019-05-03T13:45:51.158Z,3.33
2019-05-03T13:48:20.960Z,3.52
2019-05-03T13:50:49.169Z,2.92
2019-05-03T13:53:17.123Z,5.92
2019-05-03T13:55:45.130Z,5.25
2019-05-03T13:58:14.701Z,5.17
2019-05-03T14:00:45.165Z,3.90
2019-05-03T14:03:15.050Z,5.25
2019-05-03T14:05:44.577Z,4.40
2019-05-03T14:08:15.398Z,5.03
2019-05-03T14:10:45.203Z,6.20
2019-05-03T14:13:12.831Z,7.47
2019-05-03T14:15:41.252Z,5.08
2019-05-03T14:18:09.339Z,5.40
2019-05-03T14:20:51.605Z,7.50
2019-05-03T14:23:19.758Z,5.70
2019-05-03T14:25:47.743Z,6.50
2019-05-03T14:28:16.050Z,5.72
2019-05-03T14:30:45.415Z,6.10
2019-05-03T14:33:13.504Z,5.55
2019-05-03T14:35:41.495Z,4.08
2019-05-03T14:38:09.862Z,4.62
2019-05-03T14:40:37.975Z,4.03
2019-05-03T14:43:06.396Z,4.30
2019-05-03T14:45:34.986Z,4.37
2019-05-03T14:48:06.180Z,4.08
2019-05-03T14:50:35.181Z,4.50
2019-05-03T14:53:05.482Z,3.90
2019-05-03T14:55:54.137Z,3.37
2019-05-03T14:58:40.027Z,3.90
2019-05-03T15:01:15.527Z,3.75
2019-05-03T15:03:43.401Z,4.42
2019-05-03T15:06:11.755Z,2.98
2019-05-03T15:08:39.856Z,3.15
2019-05-03T15:11:08.568Z,2.62
2019-05-03T15:13:36.575Z,2.90
2019-05-03T15:16:05.339Z,2.50
2019-05-03T15:18:34.789Z,3.40
2019-05-03T15:21:05.339Z,3.50
2019-05-03T15:23:34.715Z,2.50
2019-05-03T15:26:05.073Z,2.83
2019-05-03T15:28:35.407Z,4.50
2019-05-03T15:31:04.574Z,4.15
2019-05-03T15:33:32.788Z,3.33
2019-05-03T15:36:00.887Z,2.92
2019-05-03T15:38:29.140Z,3.00
2019-05-03T15:40:57.139Z,2.02
2019-05-03T15:43:34.918Z,2.52
2019-05-03T15:46:11.867Z,3.12
2019-05-03T15:48:45.698Z,2.47
2019-05-03T15:51:15.089Z,3.08
2019-05-03T15:53:44.426Z,2.87
2019-05-03T15:56:14.694Z,3.25
2019-05-03T15:58:46.692Z,2.52
2019-05-03T16:01:15.165Z,2.80
2019-05-03T16:03:44.739Z,30.05
2019-05-03T16:06:13.077Z,3.62
2019-05-03T16:08:41.468Z,3.15
2019-05-03T16:11:09.638Z,3.85
2019-05-03T16:13:38.385Z,3.42
2019-05-03T16:16:06.577Z,3.25
2019-05-03T16:18:35.232Z,4.05
2019-05-03T16:21:05.005Z,4.65
2019-05-03T16:23:33.114Z,4.30
2019-05-03T16:26:01.110Z,4.22
2019-05-03T16:28:36.044Z,3.77
2019-05-03T16:31:09.771Z,4.90
2019-05-03T16:33:39.412Z,3.50
2019-05-03T16:36:07.611Z,3.67
2019-05-03T16:38:36.423Z,3.58
2019-05-03T16:41:05.114Z,3.80
2019-05-03T16:43:34.824Z,5.25
2019-05-03T16:46:05.486Z,4.87
2019-05-03T16:48:35.187Z,3.58
2019-05-03T16:51:03.965Z,3.50
2019-05-03T16:53:32.034Z,3.27
2019-05-03T16:56:00.125Z,5.33
2019-05-03T16:58:28.842Z,4.92
2019-05-03T17:00:56.790Z,5.50
2019-05-03T17:03:39.293Z,5.47
2019-05-03T17:06:30.006Z,5.15
2019-05-03T17:09:20.579Z,4.80
2019-05-03T17:12:10.227Z,4.40
2019-05-03T17:14:38.638Z,5.50
2019-05-03T17:17:07.302Z,5.10
2019-05-03T17:19:35.546Z,4.87
2019-05-03T17:22:05.589Z,3.45
2019-05-03T17:24:35.300Z,2.95
2019-05-03T17:27:03.895Z,3.22
2019-05-03T17:29:32.034Z,3.30
2019-05-03T17:32:00.868Z,2.77
2019-05-03T17:34:28.811Z,2.90
2019-05-03T17:36:57.143Z,6.35
2019-05-03T17:39:45.654Z,2.77
2019-05-03T17:42:36.489Z,2.85
2019-05-03T17:45:05.296Z,3.50
2019-05-03T17:47:34.757Z,2.70
2019-05-03T17:50:05.221Z,2.65
2019-05-03T17:52:51.014Z,2.40
2019-05-03T17:55:29.149Z,2.85
2019-05-03T17:58:34.989Z,3.05
2019-05-03T18:01:10.850Z,3.22
2019-05-03T18:03:41.354Z,2.45
2019-05-03T18:06:19.566Z,4.33
2019-05-03T18:09:06.577Z,2.27
2019-05-03T18:11:37.889Z,2.77
2019-05-03T18:14:05.769Z,2.00
2019-05-03T18:16:34.991Z,2.42
2019-05-03T18:19:05.135Z,3.08
2019-05-03T18:21:33.164Z,2.90
2019-05-03T18:24:01.642Z,2.37
2019-05-03T18:26:29.793Z,4.15
2019-05-03T18:28:57.841Z,2.67
2019-05-03T18:31:26.243Z,2.17
2019-05-03T18:33:54.849Z,2.10
2019-05-03T18:36:25.127Z,2.75
2019-05-03T18:38:55.224Z,1.75
2019-05-03T18:41:25.410Z,2.62
2019-05-03T18:44:12.370Z,2.77
2019-05-03T18:46:45.688Z,3.10
2019-05-03T18:49:14.622Z,2.05
2019-05-03T18:51:44.629Z,1.72
2019-05-03T18:54:12.935Z,2.90
2019-05-03T18:56:41.130Z,2.90
2019-05-03T18:59:09.140Z,2.50
2019-05-03T19:01:37.644Z,3.85
2019-05-03T19:04:34.669Z,2.50
2019-05-03T19:07:04.344Z,1.90
2019-05-03T19:10:02.796Z,3.10
2019-05-03T19:12:37.061Z,3.00
2019-05-03T19:15:05.426Z,2.87
2019-05-03T19:17:46.031Z,3.45
2019-05-03T19:20:16.796Z,2.20
2019-05-03T19:22:44.790Z,4.28
2019-05-03T19:25:14.874Z,3.15
2019-05-03T19:27:45.068Z,2.45
2019-05-03T19:30:14.882Z,2.60
2019-05-03T19:32:44.886Z,4.30
2019-05-03T19:35:13.093Z,3.27
2019-05-03T19:37:41.094Z,3.40
2019-05-03T19:40:09.644Z,3.62
2019-05-03T19:42:38.322Z,2.87
2019-05-03T19:45:15.173Z,4.75
2019-05-03T19:47:44.805Z,4.08
2019-05-03T19:50:15.540Z,2.75
2019-05-03T19:53:12.140Z,3.83
2019-05-03T19:55:40.240Z,4.53
2019-05-03T19:58:08.579Z,4.33
2019-05-03T20:00:45.057Z,4.17
2019-05-03T20:03:17.714Z,4.72
2019-05-03T20:06:07.970Z,3.62
2019-05-03T20:08:39.556Z,6.35
2019-05-03T20:11:14.974Z,5.92
2019-05-03T20:13:45.132Z,7.03
2019-05-03T20:16:15.438Z,4.95
2019-05-03T20:18:45.369Z,4.08
2019-05-03T20:21:14.999Z,4.55
2019-05-03T20:23:44.732Z,4.60
2019-05-03T20:26:14.950Z,5.03
2019-05-03T20:28:44.964Z,4.70
2019-05-03T20:31:13.458Z,4.33
2019-05-03T20:33:41.689Z,4.80
2019-05-03T20:36:09.710Z,4.53
2019-05-03T20:38:37.623Z,4.30
2019-05-03T20:41:06.447Z,6.33
2019-05-03T20:43:54.865Z,5.62
2019-05-03T20:46:28.385Z,5.33
2019-05-03T20:48:58.936Z,4.95
2019-05-03T20:51:49.702Z,4.33
2019-05-03T20:54:15.372Z,8.05
2019-05-03T20:56:45.534Z,4.37
2019-05-03T20:59:14.768Z,4.05
2019-05-03T21:01:45.154Z,5.05
2019-05-03T21:04:12.963Z,5.55
2019-05-03T21:06:40.934Z,4.50
2019-05-03T21:09:08.880Z,4.15
2019-05-03T21:11:36.881Z,4.78
2019-05-03T21:14:04.912Z,6.90
2019-05-03T21:22:24.952Z,5.87
2019-05-03T21:24:59.565Z,6.00
2019-05-03T21:27:28.079Z,6.87
2019-05-03T21:29:56.185Z,5.10
2019-05-03T21:32:25.058Z,5.83
2019-05-03T21:34:55.516Z,3.83
2019-05-03T21:37:24.494Z,7.10
2019-05-03T21:39:54.628Z,4.28
2019-05-03T21:42:22.535Z,4.83
2019-05-03T21:44:50.507Z,5.10
2019-05-03T21:47:44.123Z,3.92
2019-05-03T21:50:15.050Z,3.98
2019-05-03T21:52:43.126Z,4.58
2019-05-03T21:55:11.143Z,4.40
2019-05-03T21:57:39.272Z,6.35
2019-05-03T22:00:08.674Z,6.53
2019-05-03T22:02:37.144Z,4.58
2019-05-03T22:05:05.634Z,3.60
2019-05-03T22:07:35.017Z,4.35
2019-05-03T22:10:05.018Z,4.65
2019-05-03T22:12:33.131Z,5.08
2019-05-03T22:15:20.634Z,4.47
2019-05-03T22:18:11.300Z,4.53
2019-05-03T22:20:47.299Z,6.20
2019-05-03T22:23:37.136Z,4.30
2019-05-03T22:26:05.238Z,6.62
2019-05-03T22:28:35.113Z,5.47
2019-05-03T22:31:06.623Z,7.80
2019-05-03T22:33:33.969Z,6.20
2019-05-03T22:36:08.475Z,5.85
2019-05-03T22:38:34.088Z,6.05
2019-05-03T22:41:02.362Z,7.78
2019-05-03T22:43:30.409Z,4.78
2019-05-03T22:45:58.376Z,6.95
2019-05-03T22:48:26.287Z,4.28
2019-05-03T22:50:55.563Z,5.45
2019-05-03T22:53:25.392Z,6.10
2019-05-03T22:55:54.326Z,5.12
2019-05-03T22:58:22.332Z,6.72
2019-05-03T23:00:50.337Z,5.10
2019-05-03T23:03:18.191Z,4.83
2019-05-03T23:05:46.329Z,5.50
2019-05-03T23:08:14.870Z,8.63
2019-05-03T23:10:42.852Z,5.83
2019-05-03T23:13:10.676Z,5.97
2019-05-03T23:15:39.014Z,6.08
2019-05-03T23:18:07.032Z,5.60
2019-05-03T23:20:44.852Z,6.30
2019-05-03T23:23:32.452Z,5.53
2019-05-03T23:26:00.572Z,7.85
2019-05-03T23:28:28.798Z,5.97
2019-05-03T23:30:56.773Z,6.70
2019-05-03T23:33:25.239Z,6.10
2019-05-03T23:35:55.109Z,5.78
2019-05-03T23:38:24.679Z,7.03
2019-05-03T23:40:52.816Z,7.40
2019-05-03T23:43:20.746Z,6.30
2019-05-03T23:45:48.806Z,6.92
2019-05-03T23:48:16.681Z,7.00
2019-05-03T23:50:45.373Z,7.58
2019-05-03T23:53:15.302Z,6.12
2019-05-03T23:55:56.988Z,6.20
2019-05-03T23:58:24.793Z,7.53
